Time;durP1;ratioP1;P1;durP2;ratioP2;P2;SDS_P1;SDS_P2;PMS_P1;PMS_P2;Temp;Humidity;BMP_temperature;BMP_pressure;BME280_temperature;BME280_humidity;BME280_pressure;Samples;Min_cycle;Max_cycle;Signal;HPM_P1;HPM_P2
2021/12/17 00:01:45;;;;;;;6.82;3.47;;;;;;;2.39;80.73;95376.53;5005826;28;20204;-69
2021/12/17 00:04:26;;;;;;;6.13;3.33;;;;;;;2.34;80.28;95373.81;5030709;28;20235;-69
2021/12/17 00:06:53;;;;;;;7.65;4.78;;;;;;;2.31;80.67;95377.81;5031049;28;20196;-69
2021/12/17 00:09:20;;;;;;;11.73;4.90;;;;;;;2.26;80.20;95369.75;5031115;28;20212;-70
2021/12/17 00:11:47;;;;;;;3.42;2.17;;;;;;;2.31;79.90;95375.16;5031258;28;20258;-70
2021/12/17 00:14:24;;;;;;;6.18;3.42;;;;;;;2.33;79.77;95381.03;5030803;28;20628;-70
2021/12/17 00:16:51;;;;;;;7.72;3.60;;;;;;;2.31;79.57;95377.00;5031409;28;20292;-70
2021/12/17 00:19:25;;;;;;;8.18;3.80;;;;;;;2.32;79.36;95381.31;5030972;28;20208;-69
2021/12/17 00:48:23;;;;;;;9.50;4.50;;;;;;;2.42;78.24;95381.38;5019755;28;20294;-69
2021/12/17 00:49:24;;;;;;;4.32;2.60;;;;;;;2.48;77.99;95377.63;5030584;28;20188;-68
2021/12/17 00:51:59;;;;;;;4.78;2.60;;;;;;;2.48;77.25;95380.31;5022575;28;20225;-69
2021/12/17 00:54:33;;;;;;;3.55;2.35;;;;;;;2.52;77.22;95372.59;5026316;28;20191;-68
2021/12/17 00:57:03;;;;;;;6.68;3.47;;;;;;;2.45;77.36;95370.16;5020100;28;20687;-69
2021/12/17 00:59:30;;;;;;;9.55;3.47;;;;;;;2.44;76.98;95381.91;5028651;28;20258;-69
2021/12/17 01:02:02;;;;;;;4.88;3.03;;;;;;;2.44;76.86;95379.25;5030644;28;20200;-70
2021/12/17 01:04:29;;;;;;;5.13;3.13;;;;;;;2.44;76.87;95368.53;5030175;28;20251;-69
2021/12/17 01:06:56;;;;;;;5.72;3.60;;;;;;;2.53;76.64;95380.34;5033996;28;20679;-70
2021/12/17 01:09:25;;;;;;;4.25;2.55;;;;;;;2.55;76.39;95374.75;5034719;28;20208;-70
2021/12/17 01:11:53;;;;;;;3.55;2.35;;;;;;;2.60;76.38;95372.13;5034114;28;20590;-70
2021/12/17 01:14:20;;;;;;;2.88;2.10;;;;;;;2.58;75.74;95369.69;5033761;28;20208;-69
2021/12/17 01:16:47;;;;;;;5.38;3.22;;;;;;;2.60;75.90;95367.53;5034405;28;20282;-69
2021/12/17 01:19:23;;;;;;;3.28;2.22;;;;;;;2.53;75.76;95356.28;5034062;28;20242;-69
2021/12/17 01:22:14;;;;;;;4.75;2.72;;;;;;;2.56;75.23;95358.44;5033904;28;20196;-70
2021/12/17 01:24:47;;;;;;;6.47;3.38;;;;;;;2.60;74.86;95350.72;5025351;28;20199;-70
2021/12/17 01:35:30;;;;;;;1.67;1.33;;;;;;;2.63;74.08;95344.84;5027322;28;20273;-70
2021/12/17 01:43:25;;;;;;;3.17;2.22;;;;;;;2.69;73.78;95323.22;5034879;28;20211;-70
2021/12/17 01:45:52;;;;;;;5.47;2.65;;;;;;;2.69;74.04;95322.41;5034913;28;20204;-69
2021/12/17 01:48:26;;;;;;;2.92;2.13;;;;;;;2.69;73.52;95323.22;5033833;28;20724;-70
2021/12/17 01:56:38;;;;;;;2.83;1.75;;;;;;;2.59;73.85;95320.50;5033659;28;20222;-69
2021/12/17 01:59:21;;;;;;;4.78;2.63;;;;;;;2.63;73.60;95318.91;5033493;28;20292;-69
2021/12/17 02:01:49;;;;;;;4.20;2.20;;;;;;;2.60;73.92;95322.09;5033898;28;20705;-71
2021/12/17 02:04:16;;;;;;;2.63;1.80;;;;;;;2.59;73.46;95312.47;5033543;28;20283;-72
2021/12/17 02:06:44;;;;;;;4.28;2.15;;;;;;;2.58;73.66;95337.63;5033779;28;20275;-68
2021/12/17 02:09:40;;;;;;;4.68;2.45;;;;;;;2.55;73.80;95338.13;5029297;28;20260;-69
2021/12/17 02:20:58;;;;;;;6.93;3.97;;;;;;;2.64;73.74;95331.22;5029379;28;20200;-70
2021/12/17 02:29:12;;;;;;;3.50;2.58;;;;;;;2.64;74.60;95325.84;4962981;28;20244;-70
2021/12/17 02:31:39;;;;;;;4.35;2.42;;;;;;;2.71;73.87;95318.41;5025256;28;20196;-70
2021/12/17 02:34:21;;;;;;;3.92;2.33;;;;;;;2.66;73.92;95313.03;5031251;28;20208;-68
2021/12/17 02:36:51;;;;;;;4.57;2.00;;;;;;;2.81;74.00;95315.78;5031022;28;20667;-70
2021/12/17 02:39:42;;;;;;;3.25;1.65;;;;;;;2.85;73.63;95321.41;5031268;28;20295;-69
2021/12/17 02:42:38;;;;;;;4.13;2.67;;;;;;;2.80;73.93;95316.84;5008727;28;20240;-69
2021/12/17 02:47:58;;;;;;;3.90;1.50;;;;;;;2.89;73.67;95316.31;5032315;28;20239;-70
2021/12/17 02:50:26;;;;;;;3.20;1.98;;;;;;;2.82;74.25;95312.03;5032455;28;20198;-70
2021/12/17 02:52:57;;;;;;;4.18;2.40;;;;;;;2.81;74.39;95315.78;5032606;28;20220;-70
2021/12/17 02:55:25;;;;;;;3.22;2.15;;;;;;;2.81;74.32;95315.78;5032711;28;20294;-70
2021/12/17 02:57:52;;;;;;;4.10;2.35;;;;;;;2.82;74.61;95320.06;5032633;28;20343;-69
2021/12/17 03:00:19;;;;;;;7.68;2.67;;;;;;;2.80;74.77;95314.16;5032196;28;20204;-70
2021/12/17 03:02:48;;;;;;;4.45;2.25;;;;;;;2.92;74.24;95316.59;5019735;28;20274;-70
2021/12/17 03:05:15;;;;;;;4.47;2.80;;;;;;;2.93;74.51;95323.56;5027747;28;20295;-69
2021/12/17 03:07:46;;;;;;;4.55;2.45;;;;;;;2.98;74.77;95325.47;5018272;28;20217;-69
2021/12/17 03:10:15;;;;;;;5.05;2.72;;;;;;;2.93;74.50;95320.91;5024597;28;20204;-69
2021/12/17 03:12:47;;;;;;;6.15;3.00;;;;;;;2.91;74.82;95322.22;5031964;28;20196;-69
2021/12/17 03:15:23;;;;;;;4.45;2.58;;;;;;;2.86;75.35;95315.00;5032024;28;20209;-70
2021/12/17 03:18:25;;;;;;;2.80;1.90;;;;;;;2.94;75.45;95319.03;5007828;28;20231;-69
2021/12/17 03:23:41;;;;;;;3.72;2.33;;;;;;;2.87;75.92;95313.13;5031497;28;20203;-69
2021/12/17 03:26:11;;;;;;;5.40;3.25;;;;;;;2.91;76.10;95319.53;5022005;28;20197;-70
2021/12/17 03:28:39;;;;;;;8.20;3.03;;;;;;;2.95;75.67;95315.28;5027629;28;20663;-70
2021/12/17 03:31:08;;;;;;;5.30;2.20;;;;;;;2.84;75.96;95312.59;5031748;28;20205;-70
2021/12/17 03:33:38;;;;;;;4.65;2.65;;;;;;;2.85;76.86;95316.88;5018690;28;20304;-69
2021/12/17 03:36:05;;;;;;;5.75;3.45;;;;;;;2.76;76.98;95313.06;5031601;28;20603;-70
2021/12/17 03:38:32;;;;;;;3.08;2.08;;;;;;;2.83;77.77;95310.97;5030988;28;20618;-70
2021/12/17 03:41:11;;;;;;;4.97;3.03;;;;;;;2.86;78.05;95317.69;5015177;28;20245;-69
2021/12/17 03:43:39;;;;;;;4.93;3.00;;;;;;;2.89;78.25;95305.63;5006227;28;20188;-69
2021/12/17 03:46:07;;;;;;;3.65;2.78;;;;;;;2.88;78.91;95304.00;5031546;28;20242;-69
2021/12/17 03:48:38;;;;;;;3.60;2.45;;;;;;;2.82;79.19;95301.34;5031373;28;20208;-68
2021/12/17 03:51:10;;;;;;;5.38;3.08;;;;;;;2.80;79.55;95299.97;5031282;28;20283;-69
2021/12/17 03:53:37;;;;;;;7.47;3.97;;;;;;;2.87;80.15;95302.44;5030910;28;20402;-70
2021/12/17 03:56:04;;;;;;;6.20;3.28;;;;;;;2.81;80.52;95293.56;5028050;28;20236;-69
2021/12/17 03:58:31;;;;;;;4.43;2.75;;;;;;;2.76;80.85;95286.31;5020912;28;20250;-68
2021/12/17 04:00:59;;;;;;;3.90;2.30;;;;;;;2.75;80.95;95300.75;5030958;28;20737;-69
2021/12/17 04:03:26;;;;;;;5.43;2.85;;;;;;;2.79;80.94;95291.16;5030323;28;20202;-70
2021/12/17 04:05:53;;;;;;;4.47;3.05;;;;;;;2.79;80.94;95293.81;5030927;28;20200;-70
2021/12/17 04:08:20;;;;;;;4.43;2.58;;;;;;;2.76;81.28;95280.97;5030839;28;20224;-70
2021/12/17 04:10:50;;;;;;;7.78;3.30;;;;;;;2.79;81.47;95285.00;5030695;28;20213;-70
2021/12/17 04:13:28;;;;;;;9.02;3.92;;;;;;;2.81;81.30;95272.16;5030843;28;20232;-70
2021/12/17 04:15:58;;;;;;;6.78;3.20;;;;;;;2.85;81.60;95274.06;5031072;28;20302;-70
2021/12/17 04:18:27;;;;;;;4.78;3.08;;;;;;;2.76;82.25;95282.84;5030616;28;20204;-69
2021/12/17 04:20:54;;;;;;;3.92;2.15;;;;;;;2.81;82.34;95262.28;5030696;28;20204;-69
2021/12/17 04:23:22;;;;;;;5.05;2.65;;;;;;;2.84;82.49;95261.75;5016549;28;20213;-68
2021/12/17 04:25:49;;;;;;;4.53;2.28;;;;;;;2.75;83.05;95257.97;5017912;28;20208;-69
2021/12/17 04:28:17;;;;;;;2.42;1.75;;;;;;;2.77;83.47;95250.47;5030925;28;20258;-69
2021/12/17 04:30:45;;;;;;;5.43;2.58;;;;;;;2.70;83.80;95247.25;5030614;28;20212;-69
2021/12/17 04:33:12;;;;;;;3.83;2.15;;;;;;;2.65;84.05;95241.88;5016324;28;20743;-71
2021/12/17 04:35:41;;;;;;;5.82;2.10;;;;;;;2.54;84.17;95234.91;5022954;28;20223;-70
2021/12/17 04:38:10;;;;;;;4.05;1.98;;;;;;;2.42;84.71;95220.94;5030611;28;20602;-70
2021/12/17 04:40:40;;;;;;;3.13;2.05;;;;;;;2.51;85.00;95235.41;5017785;28;20645;-70
2021/12/17 04:43:16;;;;;;;2.20;1.55;;;;;;;2.50;84.33;95231.94;5027424;28;20201;-70
2021/12/17 04:45:49;;;;;;;1.15;0.75;;;;;;;2.52;84.28;95226.34;5026142;28;20276;-70
2021/12/17 04:59:17;;;;;;;4.00;2.05;;;;;;;2.65;82.92;95219.69;4995872;28;20226;-71
2021/12/17 05:01:44;;;;;;;3.55;2.05;;;;;;;2.61;83.40;95214.06;5011530;28;20291;-72
2021/12/17 05:04:11;;;;;;;4.18;1.67;;;;;;;2.62;82.75;95212.97;5012259;28;20266;-71
2021/12/17 05:06:39;;;;;;;1.75;0.73;;;;;;;2.61;83.60;95224.75;5022188;28;20296;-71
2021/12/17 05:09:12;;;;;;;3.47;2.40;;;;;;;2.53;84.78;95233.28;5027513;28;20196;-71
2021/12/17 05:19:50;;;;;;;5.20;3.33;;;;;;;2.93;89.67;95226.44;5030176;28;20250;-73
2021/12/17 05:22:19;;;;;;;2.60;1.55;;;;;;;3.18;83.87;95210.41;5006739;28;20255;-70
2021/12/17 05:24:46;;;;;;;4.93;2.47;;;;;;;3.11;84.54;95225.94;5021300;28;20219;-72
2021/12/17 05:27:13;;;;;;;4.18;2.13;;;;;;;3.34;88.10;95227.28;5028160;28;20193;-72
2021/12/17 05:29:40;;;;;;;8.80;3.22;;;;;;;3.24;82.71;95232.66;5030147;28;20204;-71
2021/12/17 05:32:08;;;;;;;2.85;1.88;;;;;;;3.04;82.28;95236.09;5030026;28;20250;-72
2021/12/17 05:34:35;;;;;;;2.22;1.35;;;;;;;2.96;83.04;95223.25;5017316;28;20256;-70
2021/12/17 05:37:02;;;;;;;3.83;1.67;;;;;;;2.87;83.18;95228.28;5016253;28;20285;-72
2021/12/17 05:39:30;;;;;;;1.88;1.17;;;;;;;2.84;83.63;95234.19;5022205;28;20193;-70
2021/12/17 05:41:57;;;;;;;3.40;1.90;;;;;;;2.79;83.73;95228.81;5004614;28;20631;-71
2021/12/17 05:44:24;;;;;;;2.20;1.60;;;;;;;2.80;84.07;95223.22;5029866;28;20671;-71
2021/12/17 05:46:51;;;;;;;2.83;1.65;;;;;;;2.74;83.72;95208.19;5029951;28;20201;-71
2021/12/17 05:49:18;;;;;;;1.98;1.60;;;;;;;2.83;83.45;95217.34;5029389;28;20744;-70
2021/12/17 05:51:45;;;;;;;1.40;1.13;;;;;;;2.89;82.74;95212.78;5031129;28;20223;-72
2021/12/17 05:54:12;;;;;;;2.15;1.75;;;;;;;2.87;82.90;95206.88;5016244;28;20201;-71
2021/12/17 05:56:41;;;;;;;1.85;1.20;;;;;;;2.90;82.38;95205.56;5024222;28;20286;-71
2021/12/17 05:59:09;;;;;;;2.75;1.73;;;;;;;2.90;82.71;95210.91;5032839;28;20200;-72
2021/12/17 06:01:36;;;;;;;2.08;1.60;;;;;;;2.91;82.73;95217.88;5032477;28;20741;-72
2021/12/17 06:04:04;;;;;;;2.45;1.80;;;;;;;2.97;82.45;95227.53;5017992;28;20217;-71
2021/12/17 06:06:32;;;;;;;1.73;1.45;;;;;;;2.96;81.87;95225.91;5012384;28;20229;-71
2021/12/17 06:09:01;;;;;;;2.15;1.40;;;;;;;3.04;81.07;95233.41;5028899;28;20282;-71
2021/12/17 06:11:28;;;;;;;3.17;1.50;;;;;;;3.09;80.81;95230.75;5018222;28;20201;-73
2021/12/17 06:13:56;;;;;;;2.33;1.77;;;;;;;3.15;80.17;95230.47;5026164;28;20217;-72
2021/12/17 06:16:23;;;;;;;1.50;1.35;;;;;;;3.17;80.80;95232.91;5021336;28;20228;-70
2021/12/17 06:18:50;;;;;;;1.10;1.00;;;;;;;3.14;80.28;95249.50;5028672;28;20295;-71
2021/12/17 06:21:19;;;;;;;1.80;1.20;;;;;;;3.14;80.33;95250.28;5013346;28;20213;-71
2021/12/17 06:23:46;;;;;;;2.00;1.15;;;;;;;3.19;80.11;95241.47;5029768;28;20209;-72
2021/12/17 06:26:13;;;;;;;1.65;1.00;;;;;;;3.30;78.83;95243.09;5033196;28;20247;-73
2021/12/17 06:28:41;;;;;;;1.25;1.00;;;;;;;3.31;79.81;95250.03;5032910;28;20208;-71
2021/12/17 06:31:09;;;;;;;2.00;1.38;;;;;;;3.30;79.26;95243.09;5032975;28;20250;-71
2021/12/17 06:33:37;;;;;;;2.03;1.08;;;;;;;3.29;79.39;95235.31;5032218;28;20562;-71
2021/12/17 06:36:04;;;;;;;1.23;0.93;;;;;;;3.26;79.39;95235.88;5032805;28;20200;-70
2021/12/17 06:38:31;;;;;;;1.38;1.10;;;;;;;3.28;79.86;95234.50;5013056;28;20212;-72
2021/12/17 06:40:59;;;;;;;2.03;1.52;;;;;;;3.21;80.92;95242.00;5011539;28;20283;-71
2021/12/17 06:43:33;;;;;;;1.38;1.10;;;;;;;3.11;82.02;95233.97;5012650;28;20263;-72
2021/12/17 06:46:13;;;;;;;3.50;1.95;;;;;;;3.03;83.15;95245.19;5025617;28;20201;-72
2021/12/17 06:48:42;;;;;;;2.08;1.15;;;;;;;3.09;83.39;95241.47;5012395;28;20204;-72
2021/12/17 06:59:36;;;;;;;1.48;1.17;;;;;;;2.98;84.61;95239.84;5000989;28;20197;-72
2021/12/17 07:10:30;;;;;;;2.78;1.73;;;;;;;3.00;84.89;95243.06;4990847;28;20224;-72
2021/12/17 07:19:19;;;;;;;9.10;2.20;;;;;;;3.08;84.22;95239.84;5011940;28;20215;-72
2021/12/17 07:21:52;;;;;;;3.05;1.98;;;;;;;3.06;84.63;95260.72;5011190;28;20216;-71
2021/12/17 07:32:50;;;;;;;4.53;2.63;;;;;;;3.10;85.20;95248.44;5011495;28;20211;-73
2021/12/17 07:40:47;;;;;;;3.13;2.20;;;;;;;3.05;85.67;95217.09;5010623;28;20263;-72
2021/12/17 07:43:27;;;;;;;5.10;3.03;;;;;;;2.94;86.02;95206.66;5011440;28;20212;-70
2021/12/17 07:45:55;;;;;;;3.60;2.50;;;;;;;3.00;86.22;95227.00;5011530;28;20201;-71
2021/12/17 07:48:23;;;;;;;6.43;2.28;;;;;;;3.03;86.09;95224.59;5008329;28;20266;-73
2021/12/17 07:50:51;;;;;;;6.32;3.20;;;;;;;3.09;86.08;95220.84;5010750;28;20249;-70
2021/12/17 07:53:20;;;;;;;6.55;3.10;;;;;;;3.11;86.08;95233.97;5010705;28;20209;-73
2021/12/17 07:55:48;;;;;;;3.58;2.35;;;;;;;3.20;85.88;95230.50;5010543;28;20209;-70
2021/12/17 07:58:15;;;;;;;4.75;3.25;;;;;;;3.09;86.48;95223.53;5010802;28;20237;-71
2021/12/17 08:00:43;;;;;;;6.53;4.35;;;;;;;3.08;86.84;95226.47;5009865;28;20213;-71
2021/12/17 08:03:11;;;;;;;5.97;3.22;;;;;;;3.16;86.51;95247.34;5009576;28;20205;-71
2021/12/17 08:05:38;;;;;;;3.58;2.58;;;;;;;3.08;86.83;95229.94;5010759;28;20225;-72
2021/12/17 08:08:05;;;;;;;4.85;3.63;;;;;;;3.12;86.43;95231.03;5010569;28;20699;-71
2021/12/17 08:10:34;;;;;;;5.10;3.10;;;;;;;3.06;86.49;95244.66;5009946;28;20730;-71
2021/12/17 08:13:01;;;;;;;5.20;3.17;;;;;;;3.13;86.67;95259.41;5009544;28;20247;-72
2021/12/17 08:15:34;;;;;;;5.18;3.28;;;;;;;3.14;86.33;95250.28;5009503;28;20593;-72
2021/12/17 08:18:28;;;;;;;4.75;3.25;;;;;;;3.12;86.48;95247.09;5010730;28;20225;-71
2021/12/17 08:26:42;;;;;;;3.35;2.17;;;;;;;3.31;85.70;95233.97;5010242;28;20259;-73
2021/12/17 08:29:26;;;;;;;4.63;2.63;;;;;;;3.29;85.62;95230.75;5010434;28;20201;-72
2021/12/17 08:31:54;;;;;;;7.60;4.22;;;;;;;3.34;85.45;95230.78;5014780;28;20208;-72
2021/12/17 08:34:23;;;;;;;4.65;2.65;;;;;;;3.39;85.70;95230.78;5018638;28;20193;-72
2021/12/17 08:36:50;;;;;;;4.13;2.97;;;;;;;3.43;84.97;95229.16;5010281;28;20288;-72
2021/12/17 08:39:18;;;;;;;6.20;3.90;;;;;;;3.53;84.63;95228.38;5010317;28;20209;-72
2021/12/17 08:41:50;;;;;;;4.57;2.88;;;;;;;3.45;84.45;95224.34;5009564;28;20243;-72
2021/12/17 08:44:18;;;;;;;3.70;2.03;;;;;;;3.46;84.16;95217.94;5010317;28;20209;-73
2021/12/17 08:46:45;;;;;;;3.25;2.20;;;;;;;3.55;84.37;95218.97;5010289;28;20255;-72
2021/12/17 08:49:12;;;;;;;5.18;3.08;;;;;;;3.62;83.78;95207.22;5009626;28;20259;-73
2021/12/17 08:51:40;;;;;;;5.28;3.78;;;;;;;3.70;83.76;95209.31;4997748;28;20446;-72
2021/12/17 08:54:07;;;;;;;5.60;3.28;;;;;;;3.67;83.27;95199.97;5009344;28;20259;-72
2021/12/17 08:56:37;;;;;;;3.47;3.03;;;;;;;3.70;83.12;95198.63;5010475;28;20220;-71
2021/12/17 08:59:08;;;;;;;3.45;1.85;;;;;;;3.76;82.72;95202.91;5010212;28;20213;-72
2021/12/17 09:01:35;;;;;;;5.60;2.85;;;;;;;3.80;82.45;95193.25;5010114;28;20288;-75
2021/12/17 09:04:03;;;;;;;5.05;2.50;;;;;;;3.80;82.33;95203.97;5010642;28;20212;-72
2021/12/17 09:06:30;;;;;;;4.40;2.55;;;;;;;3.76;82.64;95202.91;5010045;28;20237;-72
2021/12/17 09:08:58;;;;;;;4.28;2.60;;;;;;;3.80;82.51;95201.31;5010155;28;20731;-72
2021/12/17 09:11:29;;;;;;;3.55;2.25;;;;;;;3.78;82.45;95198.09;5010224;28;20207;-72
2021/12/17 09:13:58;;;;;;;3.10;1.48;;;;;;;3.78;82.45;95192.72;5009397;28;20251;-70
2021/12/17 09:16:27;;;;;;;4.05;2.47;;;;;;;3.79;82.55;95202.38;5009335;28;20201;-72
2021/12/17 09:18:57;;;;;;;4.55;2.88;;;;;;;3.77;82.73;95199.97;5009939;28;20205;-71
2021/12/17 09:21:24;;;;;;;3.25;2.28;;;;;;;3.72;82.79;95180.41;5010392;28;20217;-73
2021/12/17 09:23:52;;;;;;;7.13;4.45;;;;;;;3.72;83.09;95185.75;5010205;28;20614;-71
2021/12/17 09:26:22;;;;;;;5.28;3.83;;;;;;;3.87;82.84;95183.06;5011077;28;20213;-71
2021/12/17 09:28:49;;;;;;;3.92;2.83;;;;;;;3.86;82.90;95192.97;5013959;28;20307;-71
2021/12/17 09:31:17;;;;;;;2.83;1.90;;;;;;;3.75;83.34;95195.94;5014091;28;20205;-73
2021/12/17 09:33:49;;;;;;;3.22;2.20;;;;;;;3.58;84.25;95186.31;5013237;28;20216;-71
2021/12/17 09:36:17;;;;;;;7.78;4.78;;;;;;;3.71;84.67;95184.16;5010972;28;20208;-73
2021/12/17 09:38:49;;;;;;;5.55;3.72;;;;;;;3.77;84.09;95188.44;5026225;28;20277;-70
2021/12/17 09:41:16;;;;;;;6.40;4.47;;;;;;;3.78;84.30;95173.97;5013220;28;20283;-70
2021/12/17 09:43:44;;;;;;;7.75;4.15;;;;;;;3.83;84.26;95155.19;5013525;28;20209;-71
2021/12/17 09:46:11;;;;;;;4.78;3.38;;;;;;;3.90;84.00;95153.03;5026630;28;20200;-71
2021/12/17 09:48:38;;;;;;;4.70;2.63;;;;;;;4.02;83.39;95153.53;5013517;28;20213;-70
2021/12/17 09:51:09;;;;;;;6.72;4.47;;;;;;;4.00;83.83;95139.59;5014895;28;20696;-71
2021/12/17 09:53:38;;;;;;;4.65;3.75;;;;;;;4.03;83.36;95144.41;5023394;28;20209;-70
2021/12/17 09:56:06;;;;;;;8.27;4.22;;;;;;;3.99;83.22;95121.91;5012910;28;20326;-70
2021/12/17 09:58:33;;;;;;;5.95;4.07;;;;;;;4.16;82.21;95122.38;5013015;28;20237;-72
2021/12/17 10:01:00;;;;;;;6.53;4.22;;;;;;;4.40;82.11;95132.44;5012751;28;20668;-71
2021/12/17 10:03:28;;;;;;;5.88;3.17;;;;;;;4.37;82.14;95103.53;5012958;28;20274;-71
2021/12/17 10:05:55;;;;;;;12.88;5.82;;;;;;;4.47;81.54;95112.31;5012356;28;20228;-70
2021/12/17 10:08:26;;;;;;;7.25;3.58;;;;;;;4.45;81.55;95119.03;5012255;28;20256;-71
2021/12/17 10:10:57;;;;;;;5.63;3.55;;;;;;;4.43;81.41;95095.16;5018261;28;20204;-75
2021/12/17 10:13:26;;;;;;;6.07;3.60;;;;;;;4.42;81.75;95092.75;5020182;28;20205;-71
2021/12/17 10:15:56;;;;;;;9.35;5.55;;;;;;;4.49;82.06;95099.44;5011935;28;20255;-71
2021/12/17 10:18:34;;;;;;;4.97;3.72;;;;;;;4.43;81.78;95094.34;5013012;28;20341;-71
2021/12/17 10:21:03;;;;;;;4.38;3.25;;;;;;;4.49;81.39;95077.16;5023343;28;20395;-70
2021/12/17 10:23:33;;;;;;;5.85;4.18;;;;;;;4.45;81.30;95060.03;5014747;28;20299;-70
2021/12/17 10:26:01;;;;;;;6.00;3.47;;;;;;;4.54;80.79;95063.69;5023132;28;20620;-71
2021/12/17 10:28:30;;;;;;;8.18;4.47;;;;;;;4.60;80.58;95043.81;5011781;28;20205;-70
2021/12/17 10:30:57;;;;;;;6.40;3.95;;;;;;;4.62;80.36;95049.72;5022911;28;20201;-70
2021/12/17 10:33:27;;;;;;;4.28;2.78;;;;;;;4.53;80.47;95051.38;5018734;28;20718;-70
2021/12/17 10:35:57;;;;;;;6.28;3.70;;;;;;;4.54;80.66;95051.09;5015574;28;20585;-71
2021/12/17 10:38:26;;;;;;;5.22;3.08;;;;;;;4.60;80.27;95046.50;5011226;28;20703;-70
2021/12/17 10:41:01;;;;;;;3.67;2.30;;;;;;;4.62;79.64;95028.25;5012492;28;20233;-71
2021/12/17 10:43:34;;;;;;;5.32;3.97;;;;;;;4.68;79.57;95035.16;5009415;28;20254;-71
2021/12/17 10:46:06;;;;;;;3.03;2.33;;;;;;;4.58;79.78;95033.38;5025376;28;20251;-70
2021/12/17 10:48:47;;;;;;;6.85;3.13;;;;;;;4.53;79.79;95019.19;5011559;28;20644;-70
2021/12/17 10:51:44;;;;;;;4.75;2.58;;;;;;;4.64;79.73;95010.81;5012283;28;20228;-70
2021/12/17 10:54:13;;;;;;;3.15;2.20;;;;;;;4.64;79.29;95015.38;5011849;28;20256;-71
2021/12/17 10:56:43;;;;;;;3.35;2.45;;;;;;;4.81;78.50;95015.72;5012256;28;20212;-70
2021/12/17 10:59:12;;;;;;;2.50;1.90;;;;;;;4.80;78.47;95026.75;5010622;28;20577;-70
2021/12/17 11:01:44;;;;;;;2.38;2.08;;;;;;;4.69;78.87;95028.72;5011851;28;20205;-70
2021/12/17 11:04:15;;;;;;;3.05;2.10;;;;;;;4.49;79.77;95043.09;5011790;28;20672;-69
2021/12/17 11:06:46;;;;;;;4.93;3.42;;;;;;;4.23;81.37;95037.09;5009996;28;20275;-70
2021/12/17 11:09:31;;;;;;;4.03;2.80;;;;;;;4.15;82.24;95023.47;5011790;28;20225;-70
2021/12/17 11:12:01;;;;;;;3.55;2.53;;;;;;;4.18;82.84;95028.28;5011526;28;20644;-70
2021/12/17 11:14:29;;;;;;;3.58;2.30;;;;;;;4.20;82.84;95032.28;5011909;28;20607;-70
2021/12/17 11:16:56;;;;;;;5.28;2.97;;;;;;;4.21;82.59;95028.53;5011132;28;20216;-69
2021/12/17 11:19:23;;;;;;;5.13;3.30;;;;;;;4.26;83.41;95030.34;5011142;28;20240;-69
2021/12/17 11:21:51;;;;;;;5.20;3.95;;;;;;;4.28;83.96;95018.28;5011545;28;20247;-70
2021/12/17 11:24:18;;;;;;;7.82;5.28;;;;;;;4.21;83.84;95023.16;5006601;28;20229;-70
2021/12/17 11:26:46;;;;;;;5.82;3.97;;;;;;;4.28;83.79;95014.78;5013615;28;20204;-69
2021/12/17 11:29:16;;;;;;;5.47;3.88;;;;;;;4.25;83.39;95002.75;5021795;28;20216;-71
2021/12/17 11:31:43;;;;;;;4.25;2.40;;;;;;;4.27;83.42;94989.88;5024581;28;20283;-69
2021/12/17 11:34:11;;;;;;;5.75;3.13;;;;;;;4.44;83.58;94977.94;5011649;28;20212;-71
2021/12/17 11:36:38;;;;;;;7.00;5.22;;;;;;;4.41;83.54;94967.78;5011332;28;20201;-70
2021/12/17 11:39:16;;;;;;;4.72;2.70;;;;;;;4.49;83.14;94975.25;5010684;28;20718;-71
2021/12/17 11:41:52;;;;;;;6.60;4.68;;;;;;;4.41;82.95;94976.63;5013546;28;20407;-70
2021/12/17 11:44:31;;;;;;;3.40;2.50;;;;;;;4.38;82.59;94968.31;5018081;28;20243;-70
2021/12/17 11:47:04;;;;;;;4.22;2.22;;;;;;;4.28;82.75;94975.38;4999610;28;20201;-73
2021/12/17 11:49:36;;;;;;;5.25;2.67;;;;;;;4.22;83.03;94960.44;5009585;28;20208;-72
2021/12/17 11:52:03;;;;;;;3.72;2.90;;;;;;;4.19;83.16;94960.19;5011389;28;20208;-71
2021/12/17 11:54:33;;;;;;;4.22;2.47;;;;;;;4.36;83.36;94960.59;5010757;28;20634;-70
2021/12/17 11:57:07;;;;;;;7.35;3.67;;;;;;;4.32;83.15;94959.53;5010408;28;20263;-70
2021/12/17 11:59:39;;;;;;;4.80;3.05;;;;;;;4.27;83.38;94963.06;5010795;28;20319;-69
2021/12/17 12:02:11;;;;;;;3.25;2.38;;;;;;;4.14;83.05;94958.31;5010681;28;20541;-72
2021/12/17 12:04:53;;;;;;;3.00;2.35;;;;;;;4.01;84.22;94947.44;5011076;28;20201;-73
2021/12/17 12:07:31;;;;;;;5.75;3.10;;;;;;;4.95;88.91;94946.91;5008411;28;20255;-70
2021/12/17 12:10:05;;;;;;;5.07;2.28;;;;;;;4.97;88.25;94947.41;5010739;28;20734;-70
2021/12/17 12:12:56;;;;;;;4.00;2.65;;;;;;;4.36;82.82;94951.75;5011189;28;20248;-72
2021/12/17 12:15:34;;;;;;;3.95;2.47;;;;;;;4.10;81.74;94941.19;5008963;28;20206;-71
2021/12/17 12:18:11;;;;;;;3.78;2.35;;;;;;;4.03;82.28;94938.03;5010394;28;20240;-71
2021/12/17 12:20:50;;;;;;;4.18;2.60;;;;;;;3.96;82.46;94950.97;5010013;28;20226;-70
2021/12/17 12:23:21;;;;;;;4.35;3.13;;;;;;;3.90;82.07;94947.50;5010472;28;20204;-69
2021/12/17 12:26:08;;;;;;;3.00;1.90;;;;;;;3.95;80.94;94938.63;5013032;28;20215;-72
2021/12/17 12:28:48;;;;;;;2.95;1.75;;;;;;;3.89;81.50;94934.38;5013031;28;20212;-72
2021/12/17 12:31:40;;;;;;;3.33;2.13;;;;;;;3.87;80.81;94915.09;5011143;28;20205;-71
2021/12/17 12:34:07;;;;;;;4.55;2.72;;;;;;;3.87;80.69;94909.72;5010675;28;20201;-71
2021/12/17 12:36:55;;;;;;;3.13;2.45;;;;;;;3.98;79.86;94905.91;5025544;28;20208;-73
2021/12/17 12:39:24;;;;;;;4.80;2.38;;;;;;;4.00;80.37;94916.34;5027714;28;20232;-71
2021/12/17 12:42:00;;;;;;;4.07;2.53;;;;;;;4.01;80.21;94916.06;5014128;28;20240;-72
2021/12/17 12:45:05;;;;;;;2.55;2.05;;;;;;;3.91;79.34;94905.44;5022969;28;20196;-71
2021/12/17 12:47:44;;;;;;;3.85;2.65;;;;;;;3.98;78.99;94905.91;5010607;28;20283;-71
2021/12/17 12:50:12;;;;;;;4.95;2.72;;;;;;;3.88;78.69;94911.34;5010800;28;20303;-69
2021/12/17 12:52:44;;;;;;;2.78;2.15;;;;;;;3.78;78.86;94895.34;5009764;28;20248;-70
2021/12/17 12:55:15;;;;;;;4.07;2.38;;;;;;;3.79;79.04;94899.63;5010302;28;20247;-70
2021/12/17 12:57:44;;;;;;;2.22;1.73;;;;;;;3.80;77.87;94887.81;5010190;28;20726;-70
2021/12/17 13:00:15;;;;;;;1.95;1.60;;;;;;;3.79;77.68;94886.22;5011976;28;20208;-73
2021/12/17 13:02:45;;;;;;;3.60;2.38;;;;;;;3.79;77.43;94894.25;5013674;28;20211;-69
2021/12/17 13:05:12;;;;;;;5.13;2.08;;;;;;;3.80;77.34;94890.50;5013975;28;20228;-71
2021/12/17 13:07:41;;;;;;;1.35;1.20;;;;;;;3.84;76.82;94894.19;5014344;28;20212;-71
2021/12/17 13:10:11;;;;;;;2.35;1.50;;;;;;;3.91;76.32;94884.00;5013713;28;20668;-72
2021/12/17 13:12:38;;;;;;;1.83;1.42;;;;;;;3.94;75.92;94891.47;5014338;28;20205;-71
2021/12/17 13:15:20;;;;;;;2.13;1.58;;;;;;;3.92;76.10;94910.50;5013734;28;20299;-71
2021/12/17 13:20:56;;;;;;;2.30;1.45;;;;;;;4.01;76.01;94899.97;5013993;28;20220;-72
2021/12/17 13:23:24;;;;;;;4.38;2.15;;;;;;;4.01;75.65;94904.53;5013737;28;20255;-71
2021/12/17 13:26:05;;;;;;;2.70;1.83;;;;;;;4.00;74.78;94911.78;5014038;28;20279;-71
2021/12/17 13:28:52;;;;;;;1.65;1.20;;;;;;;4.00;74.54;94903.75;5014338;28;20279;-71
2021/12/17 13:31:35;;;;;;;3.58;1.73;;;;;;;3.96;74.53;94905.41;5025961;28;20188;-71
2021/12/17 13:34:07;;;;;;;2.17;1.60;;;;;;;3.92;74.51;94918.53;5000377;28;20746;-71
2021/12/17 13:36:35;;;;;;;2.95;1.70;;;;;;;3.92;74.20;94905.16;5014007;28;20209;-71
2021/12/17 13:39:02;;;;;;;2.95;2.03;;;;;;;3.88;73.76;94900.63;5013789;28;20343;-71
2021/12/17 13:41:38;;;;;;;2.83;2.03;;;;;;;3.88;74.17;94873.81;5009843;28;20595;-70
2021/12/17 13:44:05;;;;;;;2.22;1.48;;;;;;;3.88;73.22;94889.91;5011297;28;20660;-71
2021/12/17 13:46:36;;;;;;;3.70;2.25;;;;;;;3.85;73.31;94901.16;5011235;28;20538;-73
2021/12/17 13:49:04;;;;;;;4.53;2.25;;;;;;;3.85;73.44;94903.84;5013623;28;20212;-71
2021/12/17 13:51:32;;;;;;;3.45;2.05;;;;;;;3.83;73.56;94906.00;5013083;28;20340;-70
2021/12/17 13:53:59;;;;;;;2.03;1.83;;;;;;;3.79;73.39;94888.91;5012993;28;20209;-69
2021/12/17 13:56:26;;;;;;;3.85;1.88;;;;;;;3.77;72.98;94897.22;5013343;28;20212;-69
2021/12/17 13:59:01;;;;;;;6.32;1.80;;;;;;;3.79;72.85;94899.63;5025472;28;20319;-70
2021/12/17 14:01:29;;;;;;;2.78;2.15;;;;;;;3.82;73.36;94891.03;5001047;28;20258;-70
2021/12/17 14:03:56;;;;;;;3.00;1.92;;;;;;;3.88;73.45;94892.56;5012546;28;20208;-71
2021/12/17 14:06:28;;;;;;;3.58;2.47;;;;;;;3.83;73.20;94881.88;5020283;28;20220;-73
2021/12/17 14:08:55;;;;;;;2.63;1.85;;;;;;;3.81;74.20;94879.50;5018422;28;20291;-70